createdAt,value
2022-08-17T00:00:51.652Z,41.63
2022-08-17T00:01:51.701Z,41.63
2022-08-17T00:02:43.125Z,41.64
2022-08-17T00:03:39.652Z,41.63
2022-08-17T00:04:39.642Z,41.65
2022-08-17T00:05:39.629Z,41.64
2022-08-17T00:06:46.091Z,41.63
2022-08-17T00:07:39.633Z,41.63
2022-08-17T00:08:39.601Z,41.61
2022-08-17T00:09:39.574Z,41.60
2022-08-17T00:10:39.607Z,41.61
2022-08-17T00:11:39.541Z,41.61
2022-08-17T00:12:45.984Z,41.60
2022-08-17T00:13:39.514Z,41.62
2022-08-17T00:14:39.514Z,41.60
2022-08-17T00:15:39.492Z,41.61
2022-08-17T00:16:56.047Z,41.62
2022-08-17T00:17:41.037Z,41.63
2022-08-17T00:18:53.877Z,41.63
2022-08-17T00:19:40.480Z,41.65
2022-08-17T00:20:39.465Z,41.65
2022-08-17T00:21:59.939Z,41.66
2022-08-17T00:22:40.410Z,41.66
2022-08-17T00:23:50.021Z,41.66
2022-08-17T00:24:39.389Z,41.65
2022-08-17T00:25:39.390Z,41.66
2022-08-17T00:26:45.130Z,41.65
2022-08-17T00:27:41.933Z,41.66
2022-08-17T00:28:45.702Z,41.66
2022-08-17T00:29:39.634Z,41.67
2022-08-17T00:30:50.822Z,41.66
2022-08-17T00:31:40.774Z,41.66
2022-08-17T00:33:15.855Z,41.65
2022-08-17T00:33:46.614Z,41.64
2022-08-17T00:34:39.304Z,41.66
2022-08-17T00:35:39.244Z,41.66
2022-08-17T00:36:39.260Z,41.65
2022-08-17T00:37:39.218Z,41.65
2022-08-17T00:38:45.565Z,41.65
2022-08-17T00:39:39.288Z,41.64
2022-08-17T00:40:44.403Z,41.64
2022-08-17T00:41:42.137Z,41.64
2022-08-17T00:42:39.223Z,41.64
2022-08-17T00:43:39.218Z,41.65
2022-08-17T00:44:45.554Z,41.67
2022-08-17T00:45:39.138Z,41.66
2022-08-17T00:46:39.173Z,41.67
2022-08-17T00:47:39.201Z,41.67
2022-08-17T00:48:39.158Z,41.69
2022-08-17T00:49:45.498Z,41.69
2022-08-17T00:50:39.146Z,41.69
2022-08-17T00:51:39.079Z,41.68
2022-08-17T00:52:39.167Z,41.69
2022-08-17T00:53:39.906Z,41.67
2022-08-17T00:54:45.320Z,41.67
2022-08-17T00:55:38.998Z,41.67
2022-08-17T00:56:39.009Z,41.67
2022-08-17T00:57:38.967Z,41.67
2022-08-17T00:58:38.978Z,41.66
2022-08-17T00:59:38.947Z,41.66
2022-08-17T01:00:45.284Z,41.65
2022-08-17T01:01:38.925Z,41.63
2022-08-17T01:02:52.100Z,41.62
2022-08-17T01:03:40.422Z,41.59
2022-08-17T01:04:38.878Z,41.60
2022-08-17T01:05:42.160Z,41.57
2022-08-17T01:06:45.182Z,41.59
2022-08-17T01:07:38.858Z,41.57
2022-08-17T01:08:38.853Z,41.58
2022-08-17T01:09:38.852Z,41.59
2022-08-17T01:10:58.383Z,41.58
2022-08-17T01:11:46.157Z,41.57
2022-08-17T01:12:38.778Z,41.56
2022-08-17T01:13:41.120Z,41.55
2022-08-17T01:14:38.808Z,41.54
2022-08-17T01:15:39.029Z,41.55
2022-08-17T01:16:38.744Z,41.55
2022-08-17T01:17:45.019Z,41.57
2022-08-17T01:18:38.718Z,41.56
2022-08-17T01:19:38.712Z,41.55
2022-08-17T01:20:48.289Z,41.56
2022-08-17T01:21:40.202Z,41.56
2022-08-17T01:22:44.939Z,41.56
2022-08-17T01:23:38.664Z,41.53
2022-08-17T01:24:38.647Z,41.54
2022-08-17T01:25:38.618Z,41.51
2022-08-17T01:26:38.640Z,41.50
2022-08-17T01:27:38.639Z,41.49
2022-08-17T01:28:53.638Z,41.46
2022-08-17T01:29:40.172Z,41.46
2022-08-17T01:30:56.548Z,41.43
2022-08-17T01:31:40.059Z,41.42
2022-08-17T01:32:38.556Z,41.40
2022-08-17T01:33:38.507Z,41.39
2022-08-17T01:34:50.584Z,41.39
2022-08-17T01:35:40.096Z,41.40
2022-08-17T01:36:38.483Z,41.39
2022-08-17T01:37:38.468Z,41.39
2022-08-17T01:38:38.479Z,41.39
2022-08-17T01:39:39.547Z,41.41
2022-08-17T01:40:44.750Z,41.42
2022-08-17T01:41:38.404Z,41.43
2022-08-17T01:42:38.433Z,41.42
2022-08-17T01:43:38.682Z,41.43
2022-08-17T01:44:38.540Z,41.41
2022-08-17T01:45:38.406Z,41.41
2022-08-17T01:46:44.898Z,41.40
2022-08-17T01:47:38.345Z,41.40
2022-08-17T01:48:38.318Z,41.39
2022-08-17T01:49:38.358Z,41.39
2022-08-17T01:50:38.353Z,41.38
2022-08-17T01:51:38.295Z,41.38
2022-08-17T01:52:44.658Z,41.38
2022-08-17T01:53:38.359Z,41.37
2022-08-17T01:54:38.342Z,41.37
2022-08-17T01:55:38.254Z,41.38
2022-08-17T01:56:38.255Z,41.38
2022-08-17T01:57:38.221Z,41.38
2022-08-17T01:58:44.495Z,41.38
2022-08-17T01:59:38.244Z,41.38
2022-08-17T02:00:46.871Z,41.39
2022-08-17T02:01:39.788Z,41.39
2022-08-17T02:02:38.146Z,41.40
2022-08-17T02:03:59.040Z,41.39
2022-08-17T02:04:39.658Z,41.41
2022-08-17T02:05:38.268Z,41.41
2022-08-17T02:06:53.678Z,41.42
2022-08-17T02:07:59.511Z,41.43
2022-08-17T02:09:02.954Z,41.43
2022-08-17T02:09:39.573Z,41.43
2022-08-17T02:10:38.048Z,41.44
2022-08-17T02:11:39.596Z,41.45
2022-08-17T02:12:39.870Z,41.44
2022-08-17T02:13:38.007Z,41.44
2022-08-17T02:14:44.303Z,41.43
2022-08-17T02:15:37.985Z,41.43
2022-08-17T02:16:38.384Z,41.44
2022-08-17T02:17:37.968Z,41.44
2022-08-17T02:18:37.961Z,41.43
2022-08-17T02:19:44.234Z,41.44
2022-08-17T02:20:41.790Z,41.44
2022-08-17T02:21:38.239Z,41.45
2022-08-17T02:22:37.907Z,41.46
2022-08-17T02:23:37.959Z,41.46
2022-08-17T02:25:00.419Z,41.48
2022-08-17T02:25:39.386Z,41.50
2022-08-17T02:26:37.871Z,41.50
2022-08-17T02:27:38.135Z,41.51
2022-08-17T02:28:37.820Z,41.53
2022-08-17T02:29:38.123Z,41.51
2022-08-17T02:30:50.104Z,41.51
2022-08-17T02:31:40.421Z,41.53
2022-08-17T02:32:37.764Z,41.52
2022-08-17T02:33:42.911Z,41.53
2022-08-17T02:34:40.189Z,41.55
2022-08-17T02:35:37.723Z,41.56
2022-08-17T02:36:44.080Z,41.56
2022-08-17T02:37:37.727Z,41.56
2022-08-17T02:38:37.747Z,41.57
2022-08-17T02:39:37.743Z,41.58
2022-08-17T02:40:38.066Z,41.58
2022-08-17T02:41:37.677Z,41.59
2022-08-17T02:42:43.957Z,41.59
2022-08-17T02:43:37.615Z,41.60
2022-08-17T02:44:39.923Z,41.61
2022-08-17T02:45:37.580Z,41.60
2022-08-17T02:46:37.669Z,41.61
2022-08-17T02:47:37.605Z,41.60
2022-08-17T02:48:43.998Z,41.60
2022-08-17T02:49:37.627Z,41.59
2022-08-17T02:50:37.522Z,41.58
2022-08-17T02:51:37.578Z,41.59
2022-08-17T02:52:42.387Z,41.59
2022-08-17T02:53:39.011Z,41.59
2022-08-17T02:54:43.792Z,41.58
2022-08-17T02:55:38.727Z,41.60
2022-08-17T02:56:37.505Z,41.60
2022-08-17T02:57:37.539Z,41.60
2022-08-17T02:58:37.486Z,41.59
2022-08-17T02:59:48.781Z,41.61
2022-08-17T03:00:38.910Z,41.61
2022-08-17T03:01:37.500Z,41.63
2022-08-17T03:02:37.411Z,41.64
2022-08-17T03:03:37.419Z,41.62
2022-08-17T03:04:43.668Z,41.65
2022-08-17T03:05:37.323Z,41.64
2022-08-17T03:06:37.361Z,41.64
2022-08-17T03:07:37.386Z,41.64
2022-08-17T03:08:37.330Z,41.64
2022-08-17T03:09:37.294Z,41.66
2022-08-17T03:10:43.616Z,41.66
2022-08-17T03:11:37.363Z,41.68
2022-08-17T03:12:38.213Z,41.67
2022-08-17T03:13:37.226Z,41.70
2022-08-17T03:14:41.312Z,41.70
2022-08-17T03:15:37.272Z,41.70
2022-08-17T03:16:43.474Z,41.71
2022-08-17T03:17:37.212Z,41.73
2022-08-17T03:18:37.215Z,41.73
2022-08-17T03:19:37.178Z,41.76
2022-08-17T03:20:38.660Z,41.77
2022-08-17T03:21:37.130Z,41.79
2022-08-17T03:22:43.445Z,41.79
2022-08-17T03:23:37.105Z,41.80
2022-08-17T03:24:37.111Z,41.80
2022-08-17T03:25:37.079Z,41.81
2022-08-17T03:26:37.066Z,41.81
2022-08-17T03:27:43.322Z,41.81
2022-08-17T03:28:37.048Z,41.81
2022-08-17T03:29:37.427Z,41.80
2022-08-17T03:30:37.098Z,41.79
2022-08-17T03:31:37.279Z,41.79
2022-08-17T03:32:43.280Z,41.77
2022-08-17T03:33:38.196Z,41.76
2022-08-17T03:34:36.950Z,41.76
2022-08-17T03:35:36.948Z,41.73
2022-08-17T03:36:36.988Z,41.73
2022-08-17T03:37:37.322Z,41.72
2022-08-17T03:38:43.758Z,41.72
2022-08-17T03:39:36.939Z,41.73
2022-08-17T03:40:55.729Z,41.73
2022-08-17T03:41:38.899Z,41.72
2022-08-17T03:42:36.850Z,41.72
2022-08-17T03:43:43.787Z,41.72
2022-08-17T03:44:36.822Z,41.71
2022-08-17T03:45:36.833Z,41.70
2022-08-17T03:46:36.849Z,41.68
2022-08-17T03:47:36.869Z,41.68
2022-08-17T03:48:43.260Z,41.66
2022-08-17T03:49:36.771Z,41.66
2022-08-17T03:50:36.770Z,41.65
2022-08-17T03:51:36.841Z,41.65
2022-08-17T03:52:36.730Z,41.62
2022-08-17T03:53:43.100Z,41.61
2022-08-17T03:54:36.729Z,41.61
2022-08-17T03:55:36.696Z,41.60
2022-08-17T03:56:36.712Z,41.58
2022-08-17T03:57:36.671Z,41.58
2022-08-17T03:58:43.257Z,41.57
2022-08-17T03:59:36.634Z,41.56
2022-08-17T04:00:36.924Z,41.55
2022-08-17T04:01:36.648Z,41.55
2022-08-17T04:02:36.573Z,41.55
2022-08-17T04:03:36.718Z,41.53
2022-08-17T04:04:42.842Z,41.52
2022-08-17T04:05:36.604Z,41.52
2022-08-17T04:06:36.896Z,41.50
2022-08-17T04:07:36.581Z,41.50
2022-08-17T04:08:36.825Z,41.49
2022-08-17T04:09:36.525Z,41.50
2022-08-17T04:10:45.131Z,41.50
2022-08-17T04:11:36.516Z,41.51
2022-08-17T04:12:36.522Z,41.49
2022-08-17T04:13:36.463Z,41.50
2022-08-17T04:14:39.287Z,41.49
2022-08-17T04:15:44.546Z,41.48
2022-08-17T04:16:36.430Z,41.48
2022-08-17T04:17:36.435Z,41.48
2022-08-17T04:18:36.405Z,41.48
2022-08-17T04:19:36.369Z,41.47
2022-08-17T04:20:36.421Z,41.45
2022-08-17T04:21:42.633Z,41.45
2022-08-17T04:22:36.374Z,41.44
2022-08-17T04:23:36.333Z,41.43
2022-08-17T04:24:36.344Z,41.40
2022-08-17T04:25:36.652Z,41.39
2022-08-17T04:26:53.402Z,41.37
2022-08-17T04:27:37.803Z,41.34
2022-08-17T04:28:36.357Z,41.33
2022-08-17T04:29:54.439Z,41.30
2022-08-17T04:30:37.730Z,41.29
2022-08-17T04:31:36.248Z,41.28
2022-08-17T04:33:05.270Z,41.27
2022-08-17T04:33:37.695Z,41.27
2022-08-17T04:34:36.191Z,41.26
2022-08-17T04:35:36.176Z,41.22
2022-08-17T04:36:42.531Z,41.20
2022-08-17T04:37:44.009Z,41.17
2022-08-17T04:38:36.136Z,41.14
2022-08-17T04:39:36.122Z,41.12
2022-08-17T04:40:36.111Z,41.10
2022-08-17T04:41:36.150Z,41.07
2022-08-17T04:42:42.517Z,41.06
2022-08-17T04:43:36.051Z,41.04
2022-08-17T04:44:37.473Z,41.01
2022-08-17T04:45:36.076Z,41.00
2022-08-17T04:46:36.048Z,40.98
2022-08-17T04:47:36.058Z,40.97
2022-08-17T04:48:42.377Z,40.96
2022-08-17T04:49:36.026Z,40.93
2022-08-17T04:50:35.997Z,40.91
2022-08-17T04:51:35.979Z,40.91
2022-08-17T04:52:53.826Z,40.88
2022-08-17T04:53:43.709Z,40.88
2022-08-17T04:54:36.234Z,40.87
2022-08-17T04:55:35.900Z,40.85
2022-08-17T04:56:36.124Z,40.85
2022-08-17T04:57:37.700Z,40.85
2022-08-17T04:58:36.168Z,40.83
2022-08-17T04:59:42.188Z,40.83
2022-08-17T05:00:35.883Z,40.81
2022-08-17T05:01:35.925Z,40.79
2022-08-17T05:02:36.172Z,40.80
2022-08-17T05:03:37.590Z,40.75
2022-08-17T05:04:43.069Z,40.74
2022-08-17T05:05:35.867Z,40.71
2022-08-17T05:06:35.766Z,40.70
2022-08-17T05:07:35.789Z,40.67
2022-08-17T05:08:35.736Z,40.66
2022-08-17T05:09:42.872Z,40.64
2022-08-17T05:10:35.707Z,40.62
2022-08-17T05:11:35.709Z,40.59
2022-08-17T05:12:35.720Z,40.57
2022-08-17T05:13:35.712Z,40.53
2022-08-17T05:14:35.664Z,40.51
2022-08-17T05:15:45.075Z,40.49
2022-08-17T05:16:37.160Z,40.44
2022-08-17T05:17:35.944Z,40.42
2022-08-17T05:18:35.618Z,40.40
2022-08-17T05:19:35.605Z,40.37
2022-08-17T05:20:41.869Z,40.32
2022-08-17T05:21:35.580Z,40.31
2022-08-17T05:22:35.583Z,40.28
2022-08-17T05:23:43.037Z,40.27
2022-08-17T05:24:42.531Z,40.26
2022-08-17T05:25:37.427Z,40.21
2022-08-17T05:26:41.804Z,40.21
2022-08-17T05:27:36.038Z,40.17
2022-08-17T05:28:35.490Z,40.16
2022-08-17T05:29:36.020Z,40.16
2022-08-17T05:30:35.440Z,40.13
2022-08-17T05:31:35.434Z,40.10
2022-08-17T05:32:41.738Z,40.06
2022-08-17T05:33:36.942Z,40.05
2022-08-17T05:34:35.417Z,40.04
2022-08-17T05:35:35.428Z,40.02
2022-08-17T05:36:41.640Z,40.01
2022-08-17T05:37:43.219Z,40.00
2022-08-17T05:38:36.189Z,40.00
2022-08-17T05:39:35.373Z,39.97
2022-08-17T05:40:35.325Z,39.96
2022-08-17T05:41:35.317Z,39.93
2022-08-17T05:42:35.311Z,39.90
2022-08-17T05:43:41.603Z,39.86
2022-08-17T05:44:35.435Z,39.83
2022-08-17T05:45:55.533Z,39.80
2022-08-17T05:46:37.705Z,39.79
2022-08-17T05:47:35.260Z,39.75
2022-08-17T05:48:39.303Z,39.71
2022-08-17T05:49:42.807Z,39.68
2022-08-17T05:50:35.203Z,39.66
2022-08-17T05:51:35.202Z,39.65
2022-08-17T05:52:35.191Z,39.62
2022-08-17T05:53:36.311Z,39.60
2022-08-17T05:54:41.613Z,39.59
2022-08-17T05:55:35.159Z,39.58
2022-08-17T05:56:35.145Z,39.58
2022-08-17T05:57:35.107Z,39.58
2022-08-17T05:58:35.456Z,39.57
2022-08-17T05:59:35.137Z,39.55
2022-08-17T06:00:42.033Z,39.58
2022-08-17T06:01:35.092Z,39.56
2022-08-17T06:02:35.328Z,39.54
2022-08-17T06:03:35.052Z,39.54
2022-08-17T06:04:35.066Z,39.53
2022-08-17T06:05:41.289Z,39.52
2022-08-17T06:06:35.003Z,39.50
2022-08-17T06:07:36.067Z,39.51
2022-08-17T06:08:35.016Z,39.49
2022-08-17T06:09:34.977Z,39.49
2022-08-17T06:10:42.393Z,39.47
2022-08-17T06:11:35.344Z,39.48
2022-08-17T06:12:35.891Z,39.45
2022-08-17T06:13:34.974Z,39.45
2022-08-17T06:14:34.918Z,39.44
2022-08-17T06:15:41.243Z,39.42
2022-08-17T06:16:34.943Z,39.41
2022-08-17T06:17:34.950Z,39.40
2022-08-17T06:18:35.838Z,39.40
2022-08-17T06:19:34.875Z,39.35
2022-08-17T06:20:41.118Z,39.36
2022-08-17T06:21:34.866Z,39.34
2022-08-17T06:22:34.808Z,39.34
2022-08-17T06:23:34.782Z,39.33
2022-08-17T06:24:34.800Z,39.32
2022-08-17T06:25:41.072Z,39.33
2022-08-17T06:26:38.555Z,39.30
2022-08-17T06:27:36.257Z,39.30
2022-08-17T06:28:34.718Z,39.29
2022-08-17T06:29:34.727Z,39.26
2022-08-17T06:30:36.754Z,39.25
2022-08-17T06:31:42.335Z,39.25
2022-08-17T06:32:34.690Z,39.23
2022-08-17T06:33:35.002Z,39.21
2022-08-17T06:34:34.911Z,39.21
2022-08-17T06:35:34.657Z,39.19
2022-08-17T06:36:34.624Z,39.16
2022-08-17T06:37:40.918Z,39.14
2022-08-17T06:38:37.637Z,39.13
2022-08-17T06:39:34.916Z,39.10
2022-08-17T06:40:34.607Z,39.07
2022-08-17T06:41:37.921Z,39.03
2022-08-17T06:43:04.089Z,39.00
2022-08-17T06:43:35.544Z,38.97
2022-08-17T06:44:43.630Z,38.96
2022-08-17T06:45:36.088Z,38.92
2022-08-17T06:46:34.486Z,38.91
2022-08-17T06:47:34.575Z,38.89
2022-08-17T06:48:40.977Z,38.87
2022-08-17T06:49:34.499Z,38.86
2022-08-17T06:50:34.722Z,38.84
2022-08-17T06:51:34.713Z,38.83
2022-08-17T06:52:45.711Z,38.82
2022-08-17T06:53:43.140Z,38.79
2022-08-17T06:54:36.069Z,38.76
2022-08-17T06:55:37.936Z,38.74
2022-08-17T06:56:54.227Z,38.71
2022-08-17T06:57:35.986Z,38.71
2022-08-17T06:58:40.677Z,38.67
2022-08-17T06:59:55.903Z,38.65
2022-08-17T07:00:35.878Z,38.64
2022-08-17T07:01:34.420Z,38.63
2022-08-17T07:02:52.177Z,38.60
2022-08-17T07:03:42.120Z,38.57
2022-08-17T07:04:34.313Z,38.54
2022-08-17T07:05:34.266Z,38.53
2022-08-17T07:06:38.355Z,38.50
2022-08-17T07:07:34.224Z,38.50
2022-08-17T07:08:35.546Z,38.49
2022-08-17T07:09:40.505Z,38.48
2022-08-17T07:10:34.190Z,38.47
2022-08-17T07:11:35.401Z,38.48
2022-08-17T07:12:35.257Z,38.48
2022-08-17T07:13:34.152Z,38.47
2022-08-17T07:14:40.748Z,38.45
2022-08-17T07:15:34.113Z,38.43
2022-08-17T07:16:34.113Z,38.41
2022-08-17T07:17:46.895Z,38.39
2022-08-17T07:18:35.085Z,38.37
2022-08-17T07:19:34.068Z,38.34
2022-08-17T07:20:40.610Z,38.32
2022-08-17T07:21:34.039Z,38.30
2022-08-17T07:22:57.763Z,38.28
2022-08-17T07:23:36.146Z,38.28
2022-08-17T07:24:33.988Z,38.26
2022-08-17T07:25:34.026Z,38.24
2022-08-17T07:26:40.247Z,38.24
2022-08-17T07:27:34.743Z,38.24
2022-08-17T07:28:34.235Z,38.22
2022-08-17T07:29:35.100Z,38.22
2022-08-17T07:30:45.774Z,38.20
2022-08-17T07:31:41.811Z,38.20
2022-08-17T07:32:33.890Z,38.19
2022-08-17T07:33:34.816Z,38.16
2022-08-17T07:34:35.042Z,38.14
2022-08-17T07:35:40.791Z,38.13
2022-08-17T07:36:41.653Z,38.09
2022-08-17T07:37:33.841Z,38.08
2022-08-17T07:38:33.841Z,38.05
2022-08-17T07:39:33.910Z,38.03
2022-08-17T07:40:40.158Z,38.01
2022-08-17T07:41:53.139Z,37.99
2022-08-17T07:42:35.253Z,37.98
2022-08-17T07:43:33.732Z,37.98
2022-08-17T07:44:40.012Z,37.98
2022-08-17T07:45:33.773Z,37.97
2022-08-17T07:46:40.030Z,37.96
2022-08-17T07:47:33.713Z,37.97
2022-08-17T07:48:33.678Z,37.97
2022-08-17T07:49:33.715Z,37.96
2022-08-17T07:50:33.743Z,37.92
2022-08-17T07:51:39.936Z,37.93
2022-08-17T07:52:50.966Z,37.90
2022-08-17T07:53:35.217Z,37.90
2022-08-17T07:54:33.666Z,37.89
2022-08-17T07:55:33.625Z,37.90
2022-08-17T07:56:34.538Z,37.89
2022-08-17T07:57:39.979Z,37.89
2022-08-17T07:58:33.568Z,37.88
2022-08-17T07:59:34.031Z,37.89
2022-08-17T08:00:33.665Z,37.89
2022-08-17T08:01:39.605Z,37.88
2022-08-17T08:02:41.407Z,37.88
2022-08-17T08:03:41.305Z,37.86
2022-08-17T08:05:50.018Z,37.84
2022-08-17T08:06:34.943Z,37.81
2022-08-17T08:07:37.330Z,37.82
2022-08-17T08:08:40.218Z,37.81
2022-08-17T08:09:33.487Z,37.79
2022-08-17T08:10:37.286Z,37.78
2022-08-17T08:11:33.444Z,37.76
2022-08-17T08:12:33.825Z,37.76
2022-08-17T08:13:33.386Z,37.74
2022-08-17T08:14:39.679Z,37.74
2022-08-17T08:15:33.412Z,37.73
2022-08-17T08:16:33.650Z,37.72
2022-08-17T08:17:33.388Z,37.70
2022-08-17T08:18:53.740Z,37.69
2022-08-17T08:19:41.079Z,37.69
2022-08-17T08:20:51.407Z,37.69
2022-08-17T08:21:34.816Z,37.70
2022-08-17T08:22:33.469Z,37.70
2022-08-17T08:23:33.246Z,37.72
2022-08-17T08:24:40.490Z,37.75
2022-08-17T08:25:33.518Z,37.75
2022-08-17T08:26:33.238Z,37.78
2022-08-17T08:27:33.488Z,37.81
2022-08-17T08:28:33.195Z,37.83
2022-08-17T08:29:39.523Z,37.86
2022-08-17T08:30:33.222Z,37.87
2022-08-17T08:31:33.244Z,37.89
2022-08-17T08:32:33.135Z,37.90
2022-08-17T08:33:33.429Z,37.88
2022-08-17T08:34:59.029Z,37.89
2022-08-17T08:35:40.417Z,37.90
2022-08-17T08:37:12.771Z,37.89
2022-08-17T08:37:39.105Z,37.88
2022-08-17T08:38:34.889Z,37.88
2022-08-17T08:39:39.442Z,37.89
2022-08-17T08:40:33.064Z,37.88
2022-08-17T08:41:33.568Z,37.87
2022-08-17T08:42:33.165Z,37.88
2022-08-17T08:43:33.015Z,37.87
2022-08-17T08:45:00.504Z,37.87
2022-08-17T08:45:40.533Z,37.86
2022-08-17T08:46:32.974Z,37.87
2022-08-17T08:47:35.510Z,37.87
2022-08-17T08:48:56.376Z,37.89
2022-08-17T08:50:02.233Z,37.89
2022-08-17T08:50:38.450Z,37.89
2022-08-17T08:51:39.468Z,37.90
2022-08-17T08:52:32.906Z,37.90
2022-08-17T08:53:32.867Z,37.90
2022-08-17T08:54:32.888Z,37.91
2022-08-17T08:55:33.836Z,37.90
2022-08-17T08:56:39.494Z,37.90
2022-08-17T08:57:34.455Z,37.91
2022-08-17T08:58:41.612Z,37.88
2022-08-17T08:59:35.279Z,37.88
2022-08-17T09:00:34.300Z,37.90
2022-08-17T09:01:33.868Z,37.89
2022-08-17T09:02:39.429Z,37.87
2022-08-17T09:03:51.788Z,37.84
2022-08-17T09:04:45.107Z,37.84
2022-08-17T09:05:33.704Z,37.85
2022-08-17T09:06:39.271Z,37.82
2022-08-17T09:07:40.509Z,37.80
2022-08-17T09:08:32.701Z,37.80
2022-08-17T09:09:32.668Z,37.77
2022-08-17T09:10:33.588Z,37.77
2022-08-17T09:11:32.910Z,37.75
2022-08-17T09:12:32.952Z,37.74
2022-08-17T09:13:38.939Z,37.75
2022-08-17T09:14:43.093Z,37.72
2022-08-17T09:15:34.126Z,37.72
2022-08-17T09:16:32.596Z,37.70
2022-08-17T09:17:32.685Z,37.70
2022-08-17T09:19:00.418Z,37.69
2022-08-17T09:19:39.901Z,37.71
2022-08-17T09:20:33.320Z,37.68
2022-08-17T09:21:33.712Z,37.69
2022-08-17T09:22:32.543Z,37.67
2022-08-17T09:23:32.506Z,37.65
2022-08-17T09:24:39.021Z,37.62
2022-08-17T09:25:32.484Z,37.59
2022-08-17T09:26:32.505Z,37.58
2022-08-17T09:27:32.447Z,37.56
2022-08-17T09:28:32.768Z,37.53
2022-08-17T09:29:32.451Z,37.52
2022-08-17T09:30:39.074Z,37.49
2022-08-17T09:31:33.504Z,37.47
2022-08-17T09:32:32.415Z,37.44
2022-08-17T09:33:32.414Z,37.42
2022-08-17T09:34:33.363Z,37.40
2022-08-17T09:35:33.810Z,37.39
2022-08-17T09:36:40.135Z,37.36
2022-08-17T09:37:32.307Z,37.32
2022-08-17T09:38:39.567Z,37.29
2022-08-17T09:39:32.613Z,37.27
2022-08-17T09:40:32.267Z,37.24
2022-08-17T09:41:32.284Z,37.20
2022-08-17T09:42:38.605Z,37.16
2022-08-17T09:43:32.261Z,37.11
2022-08-17T09:44:32.248Z,37.06
2022-08-17T09:45:32.521Z,37.03
2022-08-17T09:46:32.222Z,36.99
2022-08-17T09:47:38.463Z,36.96
2022-08-17T09:48:32.257Z,36.94
2022-08-17T09:49:32.189Z,36.88
2022-08-17T09:50:57.415Z,36.85
2022-08-17T09:51:34.379Z,36.83
2022-08-17T09:52:36.180Z,36.80
2022-08-17T09:53:38.657Z,36.76
2022-08-17T09:54:40.297Z,36.73
2022-08-17T09:55:33.617Z,36.65
2022-08-17T09:56:32.071Z,36.62
2022-08-17T09:57:32.621Z,36.56
2022-08-17T09:58:32.118Z,36.49
2022-08-17T09:59:39.265Z,36.43
2022-08-17T10:00:32.098Z,36.40
2022-08-17T10:01:32.387Z,36.35
2022-08-17T10:02:32.024Z,36.31
2022-08-17T10:03:32.932Z,36.30
2022-08-17T10:04:32.891Z,36.26
2022-08-17T10:05:38.532Z,36.27
2022-08-17T10:06:33.006Z,36.27
2022-08-17T10:07:32.038Z,36.28
2022-08-17T10:08:31.955Z,36.27
2022-08-17T10:09:31.935Z,36.28
2022-08-17T10:10:32.380Z,36.26
2022-08-17T10:11:38.234Z,36.30
2022-08-17T10:12:33.351Z,36.30
2022-08-17T10:13:32.823Z,36.30
2022-08-17T10:14:37.836Z,36.31
2022-08-17T10:15:33.394Z,36.32
2022-08-17T10:16:31.812Z,36.32
2022-08-17T10:17:38.127Z,36.34
2022-08-17T10:18:33.288Z,36.36
2022-08-17T10:19:31.809Z,36.35
2022-08-17T10:20:31.758Z,36.35
2022-08-17T10:21:31.798Z,36.35
2022-08-17T10:22:34.533Z,36.35
2022-08-17T10:23:38.049Z,36.36
2022-08-17T10:24:31.718Z,36.40
2022-08-17T10:25:53.515Z,36.41
2022-08-17T10:26:53.463Z,36.45
2022-08-17T10:27:33.163Z,36.48
2022-08-17T10:28:37.976Z,36.54
2022-08-17T10:29:31.637Z,36.59
2022-08-17T10:30:33.194Z,36.63
2022-08-17T10:31:35.891Z,36.61
2022-08-17T10:32:32.743Z,36.57
2022-08-17T10:33:31.620Z,36.53
2022-08-17T10:34:41.224Z,36.52
2022-08-17T10:35:31.606Z,36.53
2022-08-17T10:36:31.564Z,36.57
2022-08-17T10:37:31.545Z,36.61
2022-08-17T10:38:31.673Z,36.67
2022-08-17T10:39:32.085Z,36.71
2022-08-17T10:40:37.820Z,36.76
2022-08-17T10:41:31.510Z,36.80
2022-08-17T10:42:32.941Z,36.80
2022-08-17T10:43:31.492Z,36.81
2022-08-17T10:44:39.608Z,36.83
2022-08-17T10:45:39.306Z,36.83
2022-08-17T10:46:31.897Z,36.84
2022-08-17T10:47:47.140Z,36.88
2022-08-17T10:48:32.905Z,36.90
2022-08-17T10:49:31.502Z,36.91
2022-08-17T10:50:31.417Z,36.91
2022-08-17T10:51:37.746Z,36.92
2022-08-17T10:52:31.377Z,36.88
2022-08-17T10:53:31.365Z,36.85
2022-08-17T10:54:31.374Z,36.79
2022-08-17T10:55:32.271Z,36.74
2022-08-17T10:56:31.314Z,36.67
2022-08-17T10:57:37.709Z,36.61
2022-08-17T10:58:31.354Z,36.55
2022-08-17T10:59:31.275Z,36.52
2022-08-17T11:00:31.371Z,36.52
2022-08-17T11:01:32.411Z,36.54
2022-08-17T11:02:31.245Z,36.58
2022-08-17T11:03:37.901Z,36.61
2022-08-17T11:04:31.243Z,36.65
2022-08-17T11:05:31.217Z,36.69
2022-08-17T11:06:32.180Z,36.69
2022-08-17T11:07:31.196Z,36.72
2022-08-17T11:08:38.181Z,36.74
2022-08-17T11:09:31.161Z,36.79
2022-08-17T11:10:31.364Z,36.83
2022-08-17T11:11:32.133Z,36.90
2022-08-17T11:12:31.402Z,36.95
2022-08-17T11:13:31.405Z,36.98
2022-08-17T11:14:38.337Z,37.01
2022-08-17T11:15:31.386Z,37.01
2022-08-17T11:16:31.096Z,37.01
2022-08-17T11:17:31.395Z,36.95
2022-08-17T11:18:31.306Z,36.89
2022-08-17T11:19:31.615Z,36.78
2022-08-17T11:20:37.639Z,36.70
2022-08-17T11:21:31.045Z,36.68
2022-08-17T11:22:33.703Z,36.73
2022-08-17T11:23:31.017Z,36.83
2022-08-17T11:24:30.969Z,36.92
2022-08-17T11:25:31.021Z,36.99
2022-08-17T11:26:38.341Z,37.06
2022-08-17T11:27:31.230Z,37.09
2022-08-17T11:28:31.266Z,37.09
2022-08-17T11:29:31.282Z,37.05
2022-08-17T11:30:30.969Z,37.00
2022-08-17T11:31:38.923Z,36.94
2022-08-17T11:32:30.967Z,36.91
2022-08-17T11:33:30.902Z,36.88
2022-08-17T11:34:31.143Z,36.83
2022-08-17T11:35:30.908Z,36.67
2022-08-17T11:36:40.124Z,36.41
2022-08-17T11:37:30.812Z,36.14
2022-08-17T11:38:30.831Z,35.87
2022-08-17T11:39:30.869Z,35.65
2022-08-17T11:41:01.974Z,35.46
2022-08-17T11:42:12.508Z,35.32
2022-08-17T11:42:31.739Z,35.19
2022-08-17T11:44:52.450Z,34.38
2022-08-17T11:46:29.733Z,35.00
2022-08-17T11:46:54.632Z,34.91
2022-08-17T11:48:58.998Z,34.10
2022-08-17T11:50:42.934Z,34.82
2022-08-17T11:51:00.798Z,34.89
2022-08-17T11:53:13.224Z,34.42
2022-08-17T11:55:34.998Z,34.61
2022-08-17T11:56:46.948Z,35.36
2022-08-17T11:58:10.227Z,35.37
2022-08-17T11:58:28.795Z,35.33
2022-08-17T11:59:20.530Z,35.22
2022-08-17T12:01:28.696Z,34.21
2022-08-17T12:03:20.869Z,34.77
2022-08-17T12:03:37.996Z,34.67
2022-08-17T12:04:33.270Z,34.62
2022-08-17T12:06:15.216Z,34.66
2022-08-17T12:06:44.494Z,34.76
2022-08-17T12:07:56.313Z,34.89
2022-08-17T12:08:31.240Z,35.01
2022-08-17T12:10:13.136Z,35.05
2022-08-17T12:10:35.187Z,35.08
2022-08-17T12:12:13.134Z,35.09
2022-08-17T12:12:28.573Z,35.08
2022-08-17T12:14:19.188Z,35.11
2022-08-17T12:15:05.885Z,35.17
2022-08-17T12:16:02.701Z,35.30
2022-08-17T12:16:27.198Z,35.38
2022-08-17T12:18:31.976Z,34.78
2022-08-17T12:19:45.368Z,35.55
2022-08-17T12:20:30.245Z,35.60
2022-08-17T12:21:30.570Z,35.58
2022-08-17T12:22:30.231Z,35.47
2022-08-17T12:23:37.499Z,35.33
2022-08-17T12:24:30.227Z,35.20
2022-08-17T12:25:30.208Z,35.13
2022-08-17T12:27:13.268Z,35.01
2022-08-17T12:28:04.399Z,34.86
2022-08-17T12:29:49.503Z,33.82
2022-08-17T12:31:27.613Z,34.38
2022-08-17T12:31:45.352Z,34.28
2022-08-17T12:33:28.118Z,34.19
2022-08-17T12:33:44.211Z,34.12
2022-08-17T12:35:20.586Z,34.13
2022-08-17T12:36:05.403Z,34.19
2022-08-17T12:36:47.955Z,34.27
2022-08-17T12:38:32.646Z,34.36
2022-08-17T12:38:46.446Z,34.36
2022-08-17T12:40:50.306Z,33.64
2022-08-17T12:42:14.967Z,34.33
2022-08-17T12:43:41.108Z,34.30
2022-08-17T12:44:11.542Z,34.22
2022-08-17T12:46:00.734Z,33.37
2022-08-17T12:47:40.735Z,34.05
2022-08-17T12:48:03.694Z,33.98
2022-08-17T12:49:47.496Z,33.93
2022-08-17T12:50:03.716Z,33.87
2022-08-17T12:51:07.295Z,33.85
2022-08-17T12:52:00.688Z,33.84
2022-08-17T12:53:02.499Z,33.95
2022-08-17T12:54:00.648Z,34.09
2022-08-17T12:55:00.640Z,34.22
2022-08-17T12:56:06.965Z,34.37
2022-08-17T12:57:00.969Z,34.48
2022-08-17T12:58:00.819Z,34.60
2022-08-17T12:59:00.674Z,34.72
2022-08-17T13:00:00.808Z,34.85
2022-08-17T13:01:06.863Z,34.95
2022-08-17T13:02:00.671Z,35.11
2022-08-17T13:03:00.609Z,35.25
2022-08-17T13:04:00.571Z,35.36